Time;durP1;ratioP1;P1;durP2;ratioP2;P2;SDS_P1;SDS_P2;PMS_P1;PMS_P2;Temp;Humidity;BMP_temperature;BMP_pressure;BME280_temperature;BME280_humidity;BME280_pressure;Samples;Min_cycle;Max_cycle;Signal;HPM_P1;HPM_P2
2022/08/22 05:40:16;;;;;;;6.90;3.90;;;22.90;99.90;;;;;;5154574;27;20584;-59
2022/08/22 05:42:43;;;;;;;5.03;3.77;;;22.90;99.90;;;;;;5171642;27;20525;-52
2022/08/22 05:45:13;;;;;;;7.72;4.68;;;23.00;99.90;;;;;;5158009;27;20430;-54
2022/08/22 05:47:42;;;;;;;5.93;4.53;;;23.00;99.90;;;;;;5150615;27;20294;-56
2022/08/22 05:50:15;;;;;;;4.97;4.57;;;23.00;99.90;;;;;;5145111;27;20448;-56
2022/08/22 05:53:01;;;;;;;5.60;4.70;;;23.10;99.90;;;;;;5130516;28;20875;-53
2022/08/22 05:55:35;;;;;;;6.70;4.93;;;23.20;99.90;;;;;;5129935;28;20548;-51
2022/08/22 05:58:21;;;;;;;4.77;4.30;;;23.20;99.90;;;;;;5133151;27;20880;-53
2022/08/22 06:00:59;;;;;;;6.80;3.83;;;23.20;99.90;;;;;;5109125;28;20469;-52
2022/08/22 06:03:30;;;;;;;6.43;5.83;;;23.20;99.90;;;;;;5109257;28;20481;-52
2022/08/22 06:06:02;;;;;;;6.97;4.80;;;23.30;99.90;;;;;;5109118;28;20496;-50
2022/08/22 06:08:36;;;;;;;7.50;4.63;;;23.20;99.90;;;;;;5114792;27;20452;-51
2022/08/22 06:11:12;;;;;;;5.77;3.90;;;23.20;99.90;;;;;;5130126;27;20866;-56
2022/08/22 06:13:44;;;;;;;5.50;4.50;;;23.20;99.80;;;;;;5129960;28;20497;-59
2022/08/22 06:16:19;;;;;;;5.30;3.90;;;23.30;99.80;;;;;;5132128;27;20859;-58
2022/08/22 06:18:49;;;;;;;4.43;3.97;;;23.30;99.80;;;;;;5108659;28;20993;-58
2022/08/22 06:21:22;;;;;;;8.30;5.30;;;23.30;99.80;;;;;;5125462;27;20479;-60
2022/08/22 06:23:55;;;;;;;4.20;3.37;;;23.40;99.50;;;;;;5149968;27;20482;-59
2022/08/22 06:26:25;;;;;;;6.20;4.30;;;23.30;99.50;;;;;;5149775;27;20489;-58
2022/08/22 06:28:56;;;;;;;4.47;4.07;;;23.40;99.90;;;;;;5133596;27;20870;-58
2022/08/22 06:31:28;;;;;;;5.77;5.10;;;23.40;99.90;;;;;;5128914;27;20477;-59
2022/08/22 06:33:59;;;;;;;6.70;4.57;;;23.40;99.90;;;;;;5128807;27;20528;-57
2022/08/22 06:36:32;;;;;;;4.60;4.20;;;23.40;99.90;;;;;;5128718;27;20865;-58
2022/08/22 06:39:07;;;;;;;4.70;4.37;;;23.40;99.90;;;;;;5129096;27;20477;-54
2022/08/22 06:41:41;;;;;;;7.30;5.00;;;23.40;99.90;;;;;;5129239;28;20444;-54
2022/08/22 06:44:12;;;;;;;5.10;4.47;;;23.40;99.90;;;;;;5128998;28;20547;-58
2022/08/22 06:46:40;;;;;;;4.87;4.40;;;23.30;99.90;;;;;;5136515;27;20562;-55
2022/08/22 06:49:08;;;;;;;3.90;3.50;;;23.40;99.90;;;;;;5149492;27;20447;-58
2022/08/22 06:51:37;;;;;;;5.57;4.07;;;23.50;99.90;;;;;;5135370;27;20571;-58
2022/08/22 06:54:08;;;;;;;6.40;3.73;;;23.60;99.90;;;;;;5135715;27;20528;-57
2022/08/22 06:56:40;;;;;;;5.93;4.73;;;23.60;99.90;;;;;;5135733;27;20440;-60
2022/08/22 06:59:14;;;;;;;5.97;4.47;;;23.60;99.90;;;;;;5132009;27;20472;-58
2022/08/22 07:01:49;;;;;;;4.47;4.07;;;23.60;99.90;;;;;;5135774;27;20511;-57
2022/08/22 07:04:16;;;;;;;4.17;3.80;;;23.60;99.90;;;;;;5135573;27;20507;-58
2022/08/22 07:06:48;;;;;;;5.77;4.47;;;23.60;99.90;;;;;;5135669;27;20440;-60
2022/08/22 07:09:22;;;;;;;5.17;4.30;;;23.60;99.90;;;;;;5119810;27;20949;-61
2022/08/22 07:11:52;;;;;;;5.80;3.90;;;23.50;99.90;;;;;;5114885;28;20441;-54
2022/08/22 07:14:26;;;;;;;3.80;3.50;;;23.60;99.60;;;;;;5114884;28;20472;-53
2022/08/22 07:16:57;;;;;;;3.93;3.30;;;23.70;98.60;;;;;;5115098;28;20464;-50
2022/08/22 07:19:27;;;;;;;6.03;3.40;;;23.80;98.10;;;;;;5114326;28;20584;-57
2022/08/22 07:21:55;;;;;;;4.23;3.50;;;23.80;97.30;;;;;;5127407;27;20537;-58
2022/08/22 07:24:26;;;;;;;4.50;3.50;;;23.90;96.70;;;;;;5114320;28;20477;-58
2022/08/22 07:27:11;;;;;;;4.43;4.20;;;24.00;96.70;;;;;;5118659;27;20874;-56
2022/08/22 07:29:47;;;;;;;5.50;3.13;;;24.00;96.30;;;;;;5134859;27;20502;-59
2022/08/22 07:32:19;;;;;;;2.70;2.57;;;24.10;96.30;;;;;;5131945;27;20464;-58
2022/08/22 07:35:04;;;;;;;6.50;2.80;;;24.10;96.10;;;;;;5118761;27;20540;-61
2022/08/22 07:37:52;;;;;;;3.13;2.83;;;24.20;96.00;;;;;;5118485;27;20469;-60
2022/08/22 07:40:25;;;;;;;2.67;2.47;;;24.20;95.90;;;;;;5131326;27;20272;-56
2022/08/22 07:43:00;;;;;;;4.13;2.93;;;24.20;95.60;;;;;;5135158;27;20445;-56
2022/08/22 07:45:34;;;;;;;4.33;2.50;;;24.30;95.60;;;;;;5132989;27;20996;-57
2022/08/22 07:48:13;;;;;;;2.53;2.43;;;24.30;94.90;;;;;;5134634;27;20448;-54
2022/08/22 07:50:48;;;;;;;6.77;3.30;;;24.30;95.20;;;;;;5134357;27;20471;-55
2022/08/22 07:53:24;;;;;;;3.60;2.83;;;24.30;95.10;;;;;;5134357;27;20440;-55
2022/08/22 07:55:54;;;;;;;4.43;3.70;;;24.30;94.80;;;;;;5117103;27;20465;-57
2022/08/22 07:58:25;;;;;;;2.43;2.23;;;24.30;94.80;;;;;;5113889;28;20446;-57
2022/08/22 08:00:54;;;;;;;2.50;2.40;;;24.30;94.80;;;;;;5114345;28;20430;-57
2022/08/22 08:03:23;;;;;;;3.63;3.00;;;24.40;94.90;;;;;;5113046;28;20544;-54
2022/08/22 08:05:50;;;;;;;3.13;2.60;;;24.40;94.60;;;;;;5113789;28;20500;-55
2022/08/22 08:08:24;;;;;;;2.35;2.20;;;24.40;94.60;;;;;;5114084;27;20534;-57
2022/08/22 08:10:54;;;;;;;2.43;2.33;;;24.40;94.60;;;;;;5113631;28;20280;-58
2022/08/22 08:13:28;;;;;;;2.70;2.50;;;24.50;94.20;;;;;;5113974;28;20638;-57
2022/08/22 08:15:55;;;;;;;3.07;2.77;;;24.60;94.10;;;;;;5113286;28;20995;-55
2022/08/22 08:18:29;;;;;;;3.20;2.87;;;24.60;94.00;;;;;;5130819;27;20528;-54
2022/08/22 08:20:59;;;;;;;2.67;2.43;;;24.60;94.10;;;;;;5134001;27;20441;-54
2022/08/22 08:23:30;;;;;;;4.17;3.10;;;24.60;94.50;;;;;;5133850;27;20861;-50
2022/08/22 08:26:03;;;;;;;2.77;2.57;;;24.60;94.50;;;;;;5132033;27;20543;-54
2022/08/22 08:28:34;;;;;;;2.70;2.50;;;24.60;94.50;;;;;;5116967;27;20438;-52
2022/08/22 08:31:09;;;;;;;3.00;2.80;;;24.60;94.40;;;;;;5113679;27;20440;-53
2022/08/22 08:33:40;;;;;;;2.50;2.30;;;24.60;94.40;;;;;;5113148;28;20807;-58
2022/08/22 08:36:18;;;;;;;3.20;2.43;;;24.60;94.00;;;;;;5124973;27;20465;-59
2022/08/22 08:38:52;;;;;;;2.53;2.37;;;24.70;94.00;;;;;;5133136;27;20951;-59
2022/08/22 08:41:37;;;;;;;2.30;2.20;;;24.70;94.10;;;;;;5133622;27;20443;-58
2022/08/22 08:44:22;;;;;;;3.43;3.23;;;24.70;93.80;;;;;;5133478;27;20547;-58
2022/08/22 08:47:02;;;;;;;3.27;2.90;;;24.70;93.50;;;;;;5131612;27;20535;-57
2022/08/22 08:49:49;;;;;;;3.87;2.60;;;24.70;93.80;;;;;;5133107;27;20857;-56
2022/08/22 08:52:41;;;;;;;2.47;2.27;;;24.70;93.60;;;;;;5129880;27;20484;-55
2022/08/22 08:55:22;;;;;;;3.20;2.17;;;24.70;93.70;;;;;;5131152;27;20848;-56
2022/08/22 08:58:09;;;;;;;2.67;2.47;;;24.70;93.50;;;;;;5133238;27;20501;-55
2022/08/22 09:00:52;;;;;;;2.30;2.10;;;24.70;93.40;;;;;;5093355;28;20902;-58
2022/08/22 09:03:36;;;;;;;3.10;2.80;;;24.80;93.50;;;;;;5092887;28;20442;-58
2022/08/22 09:06:32;;;;;;;2.43;2.33;;;24.80;93.20;;;;;;5107266;27;20505;-58
2022/08/22 09:09:09;;;;;;;1.93;1.83;;;24.80;93.00;;;;;;5117421;27;20473;-56
2022/08/22 09:12:22;;;;;;;3.03;2.87;;;24.80;92.80;;;;;;5112471;28;20441;-57
2022/08/22 09:15:09;;;;;;;2.10;2.00;;;24.80;92.70;;;;;;5066868;28;20549;-53
2022/08/22 09:18:09;;;;;;;1.90;1.80;;;24.80;92.70;;;;;;5114124;27;20436;-54
2022/08/22 09:20:50;;;;;;;3.60;3.37;;;24.80;92.60;;;;;;5133250;27;21015;-51
2022/08/22 09:23:59;;;;;;;2.60;2.40;;;24.90;92.70;;;;;;5132999;27;20521;-56
2022/08/22 09:26:38;;;;;;;2.17;2.07;;;24.90;92.50;;;;;;5107856;27;20479;-55
2022/08/22 09:29:34;;;;;;;2.70;2.50;;;24.90;92.40;;;;;;5133147;27;20472;-51
2022/08/22 09:32:08;;;;;;;2.60;2.20;;;24.90;92.50;;;;;;5091970;28;20875;-56
2022/08/22 09:34:46;;;;;;;4.10;2.27;;;24.90;92.40;;;;;;5092027;28;20496;-54
2022/08/22 09:37:19;;;;;;;2.60;2.50;;;24.90;92.30;;;;;;5092408;28;20919;-56
2022/08/22 09:39:59;;;;;;;2.40;2.10;;;24.90;92.30;;;;;;5097523;28;20480;-56
2022/08/22 09:42:34;;;;;;;3.13;2.53;;;25.00;92.20;;;;;;5132671;27;20933;-54
2022/08/22 09:45:36;;;;;;;2.50;2.20;;;25.00;92.20;;;;;;5132600;27;20879;-53
2022/08/22 09:48:12;;;;;;;2.10;1.90;;;25.00;92.10;;;;;;5132673;27;20920;-54
2022/08/22 09:50:49;;;;;;;2.87;2.67;;;25.00;91.90;;;;;;5132556;28;20466;-53
2022/08/22 09:53:40;;;;;;;2.27;2.10;;;25.00;91.90;;;;;;5117390;28;20888;-56
2022/08/22 09:56:10;;;;;;;2.70;2.43;;;25.00;91.80;;;;;;5112185;28;20500;-55
2022/08/22 09:58:42;;;;;;;2.00;1.90;;;25.10;91.70;;;;;;5112108;28;20444;-56
2022/08/22 10:01:19;;;;;;;2.13;2.03;;;25.00;91.60;;;;;;5122935;28;20906;-53
2022/08/22 10:04:37;;;;;;;2.07;1.97;;;25.10;91.50;;;;;;5132648;27;20940;-54
2022/08/22 10:07:28;;;;;;;2.03;1.93;;;25.10;91.40;;;;;;5048907;28;20476;-57
2022/08/22 10:10:04;;;;;;;3.93;3.63;;;25.10;91.40;;;;;;5048467;28;20460;-56
2022/08/22 10:12:36;;;;;;;1.93;1.70;;;25.10;91.60;;;;;;5094267;28;20927;-57
2022/08/22 10:15:16;;;;;;;1.90;1.80;;;25.10;91.20;;;;;;5111768;28;20465;-57
2022/08/22 10:17:58;;;;;;;1.87;1.77;;;25.10;91.20;;;;;;5111875;28;20529;-56
2022/08/22 10:20:29;;;;;;;1.73;1.70;;;25.10;91.20;;;;;;5111506;28;20520;-55
2022/08/22 10:23:10;;;;;;;2.00;1.57;;;25.20;91.10;;;;;;5121021;28;20510;-55
2022/08/22 10:25:41;;;;;;;1.70;1.70;;;25.20;91.10;;;;;;5133936;27;20468;-54
2022/08/22 10:28:18;;;;;;;2.43;2.30;;;25.20;91.10;;;;;;5136693;27;20522;-57
2022/08/22 10:31:02;;;;;;;1.53;1.43;;;25.20;91.10;;;;;;5130908;27;20498;-55
2022/08/22 10:33:32;;;;;;;2.03;1.93;;;25.20;90.90;;;;;;5115555;28;20524;-56
2022/08/22 10:36:06;;;;;;;1.80;1.80;;;25.20;90.80;;;;;;5115840;28;20500;-57
2022/08/22 10:38:40;;;;;;;2.17;1.60;;;25.20;90.80;;;;;;5115520;28;20457;-53
2022/08/22 10:41:13;;;;;;;1.83;1.73;;;25.30;90.80;;;;;;5123077;27;21075;-56
2022/08/22 10:43:48;;;;;;;1.90;1.80;;;25.30;90.70;;;;;;5136153;27;20531;-55
2022/08/22 10:46:17;;;;;;;2.23;2.10;;;25.30;90.70;;;;;;5136140;27;20490;-56
2022/08/22 10:48:47;;;;;;;1.87;1.77;;;25.30;90.50;;;;;;5135898;27;20447;-54
2022/08/22 10:51:31;;;;;;;2.00;1.90;;;25.30;90.50;;;;;;5124582;27;20533;-56
2022/08/22 10:54:17;;;;;;;2.53;2.33;;;25.30;90.40;;;;;;5115097;28;20784;-53
2022/08/22 10:56:52;;;;;;;1.77;1.67;;;25.40;90.40;;;;;;5115512;28;21025;-57
2022/08/22 10:59:37;;;;;;;1.53;1.43;;;25.30;90.40;;;;;;5114963;28;20476;-56
2022/08/22 11:02:28;;;;;;;1.63;1.53;;;25.40;90.30;;;;;;5127596;27;20448;-57
2022/08/22 11:05:29;;;;;;;1.53;1.43;;;25.40;90.40;;;;;;5115200;28;20493;-57
2022/08/22 11:08:16;;;;;;;2.30;1.73;;;25.40;90.20;;;;;;5115128;28;20528;-57
2022/08/22 11:11:01;;;;;;;2.50;2.40;;;25.40;90.50;;;;;;5125186;27;20468;-55
2022/08/22 11:13:37;;;;;;;1.80;1.70;;;25.40;90.50;;;;;;5135991;27;20476;-60
2022/08/22 11:16:18;;;;;;;2.47;1.80;;;25.40;90.40;;;;;;5135526;27;20472;-59
2022/08/22 11:19:15;;;;;;;1.20;1.20;;;25.50;90.50;;;;;;5127973;27;21015;-57
2022/08/22 11:21:59;;;;;;;1.63;1.50;;;25.50;90.70;;;;;;5114632;28;20847;-56
2022/08/22 11:25:08;;;;;;;1.50;1.50;;;25.40;90.30;;;;;;5114506;28;20981;-55
2022/08/22 11:27:45;;;;;;;3.10;2.00;;;25.40;89.50;;;;;;5112675;28;20453;-57
2022/08/22 11:30:16;;;;;;;2.10;2.00;;;25.40;89.20;;;;;;5114163;27;20452;-58
2022/08/22 11:33:05;;;;;;;1.97;1.77;;;25.50;89.80;;;;;;5115809;27;20453;-54
2022/08/22 11:35:42;;;;;;;1.70;1.60;;;25.50;90.40;;;;;;5136190;27;20492;-59
2022/08/22 11:38:22;;;;;;;4.00;1.63;;;25.50;90.60;;;;;;5136721;27;20465;-56
2022/08/22 11:40:58;;;;;;;1.70;1.60;;;25.50;90.60;;;;;;5136222;27;20305;-58
2022/08/22 11:43:47;;;;;;;1.93;1.83;;;25.60;90.60;;;;;;5126636;27;20480;-57
2022/08/22 11:46:24;;;;;;;1.80;1.70;;;25.60;90.80;;;;;;5114877;28;20471;-57
2022/08/22 11:49:15;;;;;;;1.97;1.87;;;25.60;91.10;;;;;;5114771;28;20469;-56
2022/08/22 11:52:04;;;;;;;3.67;2.20;;;25.70;91.10;;;;;;5122508;22;20480;-51
2022/08/22 11:54:56;;;;;;;1.93;1.83;;;25.70;92.30;;;;;;5047539;28;21821;-53
2022/08/22 11:57:33;;;;;;;2.30;2.20;;;25.70;92.80;;;;;;5048172;28;20851;-50
2022/08/22 12:00:18;;;;;;;1.97;1.87;;;25.70;93.70;;;;;;5052892;28;20479;-52
2022/08/22 12:03:07;;;;;;;1.70;1.60;;;25.70;93.70;;;;;;5052765;28;20542;-57
2022/08/22 12:05:43;;;;;;;1.97;1.87;;;25.70;93.80;;;;;;5040021;28;20530;-52
2022/08/22 12:08:14;;;;;;;2.03;1.50;;;25.70;94.00;;;;;;5052792;28;20487;-54
2022/08/22 12:10:48;;;;;;;1.60;1.50;;;25.70;94.10;;;;;;5052722;28;20874;-53
2022/08/22 12:13:21;;;;;;;1.90;1.80;;;25.70;93.90;;;;;;5052755;28;20498;-55
2022/08/22 12:15:56;;;;;;;2.27;2.17;;;25.70;93.70;;;;;;5052500;28;20455;-54
2022/08/22 12:18:49;;;;;;;1.80;1.70;;;25.70;93.70;;;;;;5052594;28;20506;-51
2022/08/22 12:21:52;;;;;;;2.40;2.20;;;25.80;93.30;;;;;;5052769;28;20487;-52
2022/08/22 12:24:52;;;;;;;2.03;1.93;;;25.80;93.10;;;;;;5052712;28;20865;-50
2022/08/22 12:27:45;;;;;;;1.42;1.33;;;25.80;93.10;;;;;;5032053;28;20444;-56
2022/08/22 12:30:19;;;;;;;2.30;1.73;;;25.80;92.70;;;;;;5032493;28;20205;-59
2022/08/22 12:33:16;;;;;;;1.80;1.70;;;25.90;92.00;;;;;;5032475;28;21036;-55
2022/08/22 12:35:58;;;;;;;2.20;2.00;;;25.90;91.70;;;;;;5032455;28;20954;-53
2022/08/22 12:38:38;;;;;;;1.70;1.60;;;25.90;91.60;;;;;;5032312;28;20449;-49
2022/08/22 12:41:28;;;;;;;1.73;1.63;;;25.90;92.00;;;;;;5032207;28;20484;-50
2022/08/22 12:44:02;;;;;;;1.73;1.63;;;25.90;92.10;;;;;;5040379;28;20477;-52
2022/08/22 12:46:43;;;;;;;2.20;1.60;;;25.90;92.10;;;;;;5052181;28;20967;-50
2022/08/22 12:49:25;;;;;;;2.83;2.10;;;25.90;92.20;;;;;;5051379;28;20486;-51
2022/08/22 12:52:06;;;;;;;1.45;1.25;;;25.90;92.00;;;;;;5051200;28;20447;-55
2022/08/22 12:54:53;;;;;;;1.63;1.40;;;25.90;92.00;;;;;;5051903;28;20564;-53
2022/08/22 12:57:32;;;;;;;1.80;1.70;;;26.00;91.40;;;;;;5052011;28;20450;-54
2022/08/22 13:00:07;;;;;;;1.77;1.67;;;26.10;91.20;;;;;;5051663;28;20536;-55
2022/08/22 13:02:38;;;;;;;1.50;1.40;;;26.10;91.10;;;;;;5051883;28;20467;-53
2022/08/22 13:05:13;;;;;;;2.07;1.97;;;26.10;91.10;;;;;;5051880;28;20452;-50
2022/08/22 13:07:42;;;;;;;1.43;1.33;;;26.10;91.10;;;;;;5051891;28;20447;-50
2022/08/22 13:10:49;;;;;;;1.93;1.53;;;26.10;91.10;;;;;;5051506;28;20495;-54
2022/08/22 13:13:26;;;;;;;1.47;1.37;;;26.10;90.90;;;;;;5051560;28;20523;-57
2022/08/22 13:15:57;;;;;;;1.90;1.80;;;26.10;90.80;;;;;;5051800;28;20531;-50
2022/08/22 13:18:31;;;;;;;1.53;1.43;;;26.10;90.70;;;;;;5051681;28;20929;-55
2022/08/22 13:21:04;;;;;;;1.30;1.30;;;26.10;90.60;;;;;;5051682;28;20503;-59
2022/08/22 13:23:35;;;;;;;2.40;1.60;;;26.10;90.50;;;;;;5031856;28;20523;-52
2022/08/22 13:26:07;;;;;;;1.67;1.57;;;26.10;90.60;;;;;;5031693;28;20449;-54
2022/08/22 13:28:50;;;;;;;1.67;1.57;;;26.10;90.40;;;;;;5031549;28;20997;-55
2022/08/22 13:31:24;;;;;;;1.73;1.63;;;26.10;90.30;;;;;;5033185;28;20480;-55
2022/08/22 13:33:57;;;;;;;1.53;1.43;;;26.10;90.30;;;;;;5051577;28;20444;-55
2022/08/22 13:36:26;;;;;;;1.50;1.40;;;26.10;90.80;;;;;;5051642;28;20451;-54
2022/08/22 13:38:58;;;;;;;1.30;1.30;;;26.10;90.30;;;;;;5031433;28;20437;-55
2022/08/22 13:41:31;;;;;;;1.20;1.20;;;26.10;90.40;;;;;;5031360;28;20491;-53
2022/08/22 13:44:13;;;;;;;2.50;2.40;;;26.10;90.30;;;;;;5040850;28;20479;-54
2022/08/22 13:46:42;;;;;;;1.50;1.40;;;26.20;90.40;;;;;;5051438;28;20527;-55
2022/08/22 13:49:16;;;;;;;1.40;1.30;;;26.10;90.30;;;;;;5051254;28;20448;-57
2022/08/22 13:51:51;;;;;;;1.20;1.20;;;26.20;90.40;;;;;;5051142;28;20475;-59
2022/08/22 13:54:40;;;;;;;1.97;1.40;;;26.20;90.40;;;;;;5051462;28;20486;-59
2022/08/22 13:57:12;;;;;;;1.53;1.43;;;26.20;90.30;;;;;;5051186;28;20479;-56
2022/08/22 13:59:47;;;;;;;1.47;1.47;;;26.20;90.20;;;;;;5051295;28;20497;-54
2022/08/22 14:02:23;;;;;;;1.40;1.37;;;26.20;90.10;;;;;;5055172;28;20483;-52
2022/08/22 14:04:53;;;;;;;1.10;1.10;;;26.20;90.50;;;;;;5055227;28;20498;-51
2022/08/22 14:07:36;;;;;;;1.47;1.37;;;26.20;90.40;;;;;;5054963;28;21020;-53
2022/08/22 14:10:06;;;;;;;1.47;1.43;;;26.30;90.50;;;;;;5055066;28;20475;-60
2022/08/22 14:12:44;;;;;;;1.50;1.40;;;26.30;90.40;;;;;;5055215;28;20499;-56
2022/08/22 14:15:16;;;;;;;1.53;1.53;;;26.30;90.10;;;;;;5055116;28;20531;-55
2022/08/22 14:17:47;;;;;;;1.47;1.47;;;26.30;89.90;;;;;;5055023;28;20523;-56
2022/08/22 14:20:22;;;;;;;1.57;1.47;;;26.30;89.80;;;;;;5054593;28;20519;-56
2022/08/22 14:22:56;;;;;;;1.50;1.50;;;26.30;89.60;;;;;;5054878;28;20494;-54
2022/08/22 14:25:25;;;;;;;2.03;1.93;;;26.30;89.60;;;;;;5054810;28;20452;-54
2022/08/22 14:27:58;;;;;;;1.23;1.23;;;26.30;89.40;;;;;;5054551;28;20458;-51
2022/08/22 14:30:29;;;;;;;2.10;2.00;;;26.30;89.70;;;;;;5054517;28;20501;-47
2022/08/22 14:33:01;;;;;;;1.90;1.70;;;26.30;83.00;;;;;;5054891;28;20896;-48
2022/08/22 14:35:33;;;;;;;2.00;1.90;;;26.30;83.10;;;;;;5054740;28;20531;-49
2022/08/22 14:38:16;;;;;;;2.27;1.80;;;26.30;82.20;;;;;;5054414;28;20821;-49
2022/08/22 14:40:44;;;;;;;2.00;1.90;;;26.40;81.70;;;;;;5054304;28;20485;-46
2022/08/22 14:43:35;;;;;;;2.53;2.10;;;26.40;80.20;;;;;;5054532;28;20547;-46
2022/08/22 14:46:06;;;;;;;2.47;1.70;;;26.40;80.50;;;;;;5054540;28;20531;-51
2022/08/22 14:48:38;;;;;;;2.00;1.90;;;26.40;81.20;;;;;;5054154;28;20456;-52
2022/08/22 14:51:09;;;;;;;1.97;1.87;;;26.30;80.60;;;;;;5054318;28;20534;-51
2022/08/22 14:53:40;;;;;;;7.90;2.20;;;26.40;79.60;;;;;;5054630;28;20448;-54
2022/08/22 14:56:17;;;;;;;1.67;1.50;;;26.40;76.90;;;;;;5052140;28;20497;-50
2022/08/22 14:58:50;;;;;;;1.60;1.60;;;26.40;80.40;;;;;;5054022;28;20447;-53
2022/08/22 15:01:20;;;;;;;1.47;1.47;;;26.40;83.60;;;;;;5053993;28;20555;-49
2022/08/22 15:03:55;;;;;;;1.60;1.50;;;26.50;84.70;;;;;;5054327;28;20467;-54
2022/08/22 15:06:31;;;;;;;1.53;1.53;;;26.50;84.90;;;;;;5053870;28;20538;-50
2022/08/22 15:09:00;;;;;;;3.73;1.60;;;26.50;85.10;;;;;;5053861;28;20487;-48
2022/08/22 15:11:30;;;;;;;1.73;1.63;;;26.50;85.20;;;;;;5053658;28;20492;-50
2022/08/22 15:14:02;;;;;;;1.83;1.83;;;26.50;84.80;;;;;;5054140;28;20912;-49
2022/08/22 15:16:34;;;;;;;1.60;1.50;;;26.50;85.00;;;;;;5054008;28;20480;-50
2022/08/22 15:19:01;;;;;;;1.47;1.37;;;26.50;85.10;;;;;;5053352;28;20536;-52
2022/08/22 15:21:31;;;;;;;1.70;1.60;;;26.50;85.20;;;;;;5053762;28;20479;-47
2022/08/22 15:24:05;;;;;;;1.73;1.63;;;26.50;85.60;;;;;;5053841;28;20476;-49
2022/08/22 15:26:35;;;;;;;2.80;1.50;;;26.50;85.10;;;;;;5053827;28;20934;-48
2022/08/22 15:29:07;;;;;;;1.30;1.20;;;26.60;85.30;;;;;;5053129;28;20953;-47
2022/08/22 15:31:38;;;;;;;1.40;1.40;;;26.60;85.20;;;;;;5053590;28;20496;-49
2022/08/22 15:34:11;;;;;;;1.47;1.20;;;26.60;85.00;;;;;;5053391;28;20816;-51
2022/08/22 15:37:07;;;;;;;1.83;1.77;;;26.60;84.70;;;;;;5053680;28;20448;-51
2022/08/22 15:39:37;;;;;;;1.43;1.33;;;26.60;84.70;;;;;;5053484;28;20510;-51
2022/08/22 15:42:05;;;;;;;5.03;2.13;;;26.60;84.70;;;;;;5053096;28;20591;-51
2022/08/22 15:44:35;;;;;;;1.23;1.23;;;26.60;84.80;;;;;;5053445;28;20448;-50
2022/08/22 15:47:10;;;;;;;3.10;1.97;;;26.70;84.30;;;;;;5053431;28;20448;-50
2022/08/22 15:49:49;;;;;;;2.30;1.40;;;26.60;84.70;;;;;;5053080;28;20958;-51
2022/08/22 15:52:24;;;;;;;1.93;1.50;;;26.70;84.90;;;;;;5049781;28;20662;-56
2022/08/22 15:55:22;;;;;;;1.30;1.30;;;26.70;85.50;;;;;;5053214;28;20444;-52
2022/08/22 15:58:03;;;;;;;2.20;1.60;;;26.70;84.70;;;;;;5047062;28;20452;-55
2022/08/22 16:00:37;;;;;;;1.43;1.43;;;26.70;84.00;;;;;;5053029;28;20448;-54
2022/08/22 16:03:08;;;;;;;3.43;1.37;;;26.80;83.60;;;;;;5052701;28;20517;-54
2022/08/22 16:05:50;;;;;;;1.77;1.53;;;26.80;83.20;;;;;;5053119;28;20530;-56
2022/08/22 16:08:25;;;;;;;1.53;1.43;;;26.80;83.00;;;;;;5052999;28;20534;-53
2022/08/22 16:11:11;;;;;;;1.43;1.33;;;26.80;82.70;;;;;;5052894;28;20482;-57
2022/08/22 16:13:43;;;;;;;1.80;1.20;;;26.80;82.40;;;;;;5052934;28;20527;-59
2022/08/22 16:16:33;;;;;;;1.70;1.50;;;26.80;82.00;;;;;;5052856;28;20472;-58
2022/08/22 16:19:20;;;;;;;1.83;1.30;;;26.80;81.80;;;;;;5052525;28;20821;-59
2022/08/22 16:22:15;;;;;;;1.70;1.70;;;26.80;81.60;;;;;;5052758;28;20567;-59
2022/08/22 16:25:09;;;;;;;1.60;1.60;;;26.80;81.40;;;;;;5052312;28;21029;-56
2022/08/22 16:27:51;;;;;;;1.40;1.30;;;26.80;81.10;;;;;;5052629;28;20545;-58
2022/08/22 16:30:33;;;;;;;1.10;1.10;;;26.80;81.00;;;;;;5052358;28;20443;-57
2022/08/22 16:33:00;;;;;;;1.20;1.20;;;26.90;80.90;;;;;;5052636;28;20488;-56
2022/08/22 16:36:04;;;;;;;2.10;1.30;;;26.90;80.70;;;;;;5051661;28;20531;-57
2022/08/22 16:38:40;;;;;;;1.10;1.10;;;26.90;80.50;;;;;;5051364;28;20454;-51
2022/08/22 16:41:22;;;;;;;1.70;1.60;;;26.90;82.00;;;;;;5051935;28;20448;-53
2022/08/22 16:44:22;;;;;;;1.70;1.60;;;26.80;83.60;;;;;;5052292;28;20532;-51
2022/08/22 16:46:53;;;;;;;1.77;1.67;;;26.80;83.00;;;;;;5051840;28;20531;-51
2022/08/22 16:49:27;;;;;;;1.43;1.37;;;26.80;83.90;;;;;;5051642;28;20472;-53
2022/08/22 16:52:36;;;;;;;1.63;1.53;;;26.80;85.10;;;;;;5048016;28;20496;-52
2022/08/22 16:55:06;;;;;;;1.43;1.33;;;26.80;84.80;;;;;;5052194;28;20535;-51
2022/08/22 16:57:42;;;;;;;3.97;2.27;;;26.80;85.10;;;;;;5052106;28;20468;-48
2022/08/22 17:00:31;;;;;;;1.90;1.80;;;26.80;84.90;;;;;;5051840;28;20458;-48
2022/08/22 17:03:09;;;;;;;1.93;1.40;;;26.80;84.30;;;;;;5031845;28;20520;-48
2022/08/22 17:05:45;;;;;;;1.87;1.77;;;26.80;85.10;;;;;;5032215;28;20449;-48
2022/08/22 17:08:43;;;;;;;1.37;1.37;;;26.80;85.10;;;;;;5032147;28;20485;-50
2022/08/22 17:11:22;;;;;;;1.93;1.80;;;26.80;84.30;;;;;;5038514;28;20792;-49
2022/08/22 17:14:03;;;;;;;3.13;1.57;;;26.80;84.30;;;;;;5051834;28;20444;-47
2022/08/22 17:16:57;;;;;;;1.80;1.70;;;26.80;85.20;;;;;;5051862;28;20487;-49
2022/08/22 17:19:42;;;;;;;1.60;1.53;;;26.80;85.60;;;;;;5051660;28;20470;-46
2022/08/22 17:22:20;;;;;;;1.13;1.13;;;26.80;85.20;;;;;;5051304;28;20566;-49
2022/08/22 17:24:57;;;;;;;1.43;1.40;;;26.80;85.60;;;;;;5051632;28;20444;-52
2022/08/22 17:27:33;;;;;;;1.30;1.20;;;26.80;85.20;;;;;;5051550;28;20444;-51
2022/08/22 17:30:08;;;;;;;1.77;1.73;;;26.80;84.60;;;;;;5051492;28;20471;-53
2022/08/22 17:32:46;;;;;;;2.40;1.37;;;26.80;84.10;;;;;;5051429;28;20543;-52
2022/08/22 17:35:23;;;;;;;1.93;1.83;;;26.80;84.40;;;;;;5051348;28;20491;-51
2022/08/22 17:37:59;;;;;;;1.23;1.23;;;26.90;83.90;;;;;;5051533;28;20877;-52
2022/08/22 17:40:41;;;;;;;1.60;1.50;;;26.90;84.10;;;;;;5051252;28;20462;-53
2022/08/22 17:43:27;;;;;;;2.00;1.37;;;26.90;83.80;;;;;;5050991;28;21068;-54
2022/08/22 17:46:10;;;;;;;1.43;1.33;;;26.90;83.70;;;;;;5051610;28;20524;-51
2022/08/22 17:48:44;;;;;;;1.50;1.40;;;26.90;84.00;;;;;;5051364;28;20478;-52
2022/08/22 17:51:23;;;;;;;1.80;1.67;;;26.90;84.10;;;;;;5049835;28;20452;-49
2022/08/22 17:53:56;;;;;;;1.40;1.40;;;26.90;83.70;;;;;;5075665;22;20519;-57
2022/08/22 17:56:28;;;;;;;1.37;1.30;;;26.90;83.70;;;;;;5051265;28;20447;-56
2022/08/22 17:59:02;;;;;;;1.03;1.03;;;26.90;83.50;;;;;;5051304;28;20510;-50
2022/08/22 18:01:48;;;;;;;1.13;1.13;;;26.90;83.60;;;;;;5050922;28;20534;-57
2022/08/22 18:04:26;;;;;;;1.20;1.20;;;26.90;83.80;;;;;;5031454;28;20473;-53
2022/08/22 18:06:58;;;;;;;1.90;1.53;;;26.90;82.80;;;;;;5031394;28;20440;-61
2022/08/22 18:09:33;;;;;;;1.57;1.47;;;26.90;83.00;;;;;;5030798;28;20477;-63
2022/08/22 18:12:06;;;;;;;2.00;1.80;;;26.90;82.80;;;;;;5021359;28;20461;-63
2022/08/22 18:14:50;;;;;;;1.30;1.20;;;26.90;82.90;;;;;;5031171;28;20456;-63
2022/08/22 18:17:21;;;;;;;1.77;1.27;;;26.90;83.50;;;;;;5031364;28;20451;-64
2022/08/22 18:19:59;;;;;;;1.53;1.43;;;26.90;83.90;;;;;;5030975;28;20520;-62
2022/08/22 18:22:31;;;;;;;1.67;1.57;;;26.90;83.90;;;;;;5031130;28;20586;-62
2022/08/22 18:25:06;;;;;;;1.97;1.73;;;26.90;84.10;;;;;;5031088;28;20528;-64
2022/08/22 18:27:39;;;;;;;2.00;1.70;;;26.90;84.20;;;;;;5031213;28;20863;-62
2022/08/22 18:30:16;;;;;;;1.30;1.20;;;26.90;84.30;;;;;;5030719;28;20481;-64
2022/08/22 18:32:51;;;;;;;1.20;1.20;;;26.90;84.30;;;;;;5031084;28;20488;-53
2022/08/22 18:35:24;;;;;;;1.70;1.60;;;27.00;83.60;;;;;;5031143;28;20878;-48
2022/08/22 18:38:01;;;;;;;1.70;1.60;;;27.00;82.80;;;;;;5030773;28;20452;-54
2022/08/22 18:40:39;;;;;;;1.60;1.50;;;27.00;82.40;;;;;;5030613;28;20879;-60
2022/08/22 18:43:14;;;;;;;1.80;1.70;;;27.00;81.10;;;;;;5030925;28;20929;-59
2022/08/22 18:45:57;;;;;;;1.70;1.60;;;27.00;82.50;;;;;;5031237;28;20865;-58
2022/08/22 18:48:29;;;;;;;1.40;1.40;;;27.00;82.00;;;;;;5034274;28;20544;-59
2022/08/22 18:51:22;;;;;;;2.00;1.90;;;27.00;82.10;;;;;;5034629;28;20532;-58
2022/08/22 18:53:53;;;;;;;1.40;1.30;;;27.00;81.10;;;;;;5034320;28;20473;-61
2022/08/22 18:56:48;;;;;;;3.70;1.90;;;27.00;80.80;;;;;;5034383;28;20480;-62
2022/08/22 18:59:36;;;;;;;1.77;1.70;;;27.00;80.10;;;;;;5032079;28;20526;-62
2022/08/22 19:02:26;;;;;;;1.80;1.70;;;27.00;78.50;;;;;;5030993;28;20610;-61
2022/08/22 19:05:20;;;;;;;2.87;1.90;;;27.00;79.20;;;;;;5034354;28;20441;-61
2022/08/22 19:08:01;;;;;;;2.10;2.00;;;27.00;78.20;;;;;;5033902;28;20849;-61
2022/08/22 19:10:38;;;;;;;2.27;2.17;;;27.00;75.40;;;;;;5033935;28;20444;-61
2022/08/22 19:13:53;;;;;;;1.90;1.80;;;27.00;77.90;;;;;;5034184;28;20500;-60
2022/08/22 19:16:56;;;;;;;2.60;2.40;;;26.90;77.10;;;;;;5012694;28;20545;-59
2022/08/22 19:22:26;;;;;;;1.80;1.70;;;26.90;71.80;;;;;;5013090;28;20501;-61
2022/08/22 19:25:11;;;;;;;2.40;2.30;;;26.90;71.50;;;;;;5014273;28;20849;-55
2022/08/22 19:27:43;;;;;;;2.70;2.50;;;26.90;72.30;;;;;;5023384;28;20477;-60